sensor_id;sensor_type;location;lat;lon;timestamp;pressure;altitude;pressure_sealevel;temperature;humidity
19208;BME280;9737;59.466;18.036;2023-04-01T00:00:33;93603.19;;;-7.49;50.07
19208;BME280;9737;59.466;18.036;2023-04-01T00:03:01;93604.00;;;-7.48;50.53
19208;BME280;9737;59.466;18.036;2023-04-01T00:05:29;93613.34;;;-7.47;50.49
19208;BME280;9737;59.466;18.036;2023-04-01T00:07:57;93608.34;;;-7.49;50.67
19208;BME280;9737;59.466;18.036;2023-04-01T00:10:26;93604.34;;;-7.52;50.05
19208;BME280;9737;59.466;18.036;2023-04-01T00:12:53;93607.38;;;-7.48;50.80
19208;BME280;9737;59.466;18.036;2023-04-01T00:15:23;93611.72;;;-7.48;50.29
19208;BME280;9737;59.466;18.036;2023-04-01T00:17:51;93626.69;;;-7.44;50.07
19208;BME280;9737;59.466;18.036;2023-04-01T00:20:19;93660.97;;;-7.35;50.54
19208;BME280;9737;59.466;18.036;2023-04-01T00:22:48;93629.28;;;-7.44;50.34
19208;BME280;9737;59.466;18.036;2023-04-01T00:25:16;93618.69;;;-7.57;50.42
19208;BME280;9737;59.466;18.036;2023-04-01T00:27:45;93675.47;;;-7.34;50.90
19208;BME280;9737;59.466;18.036;2023-04-01T00:30:13;93715.88;;;-7.19;50.68
19208;BME280;9737;59.466;18.036;2023-04-01T00:32:43;93694.94;;;-7.24;50.45
19208;BME280;9737;59.466;18.036;2023-04-01T00:35:11;93672.38;;;-7.30;50.72
19208;BME280;9737;59.466;18.036;2023-04-01T00:37:39;93645.03;;;-7.39;50.45
19208;BME280;9737;59.466;18.036;2023-04-01T00:40:11;93604.78;;;-7.48;50.53
19208;BME280;9737;59.466;18.036;2023-04-01T00:42:48;93589.00;;;-7.53;50.34
19208;BME280;9737;59.466;18.036;2023-04-01T00:45:29;93555.59;;;-7.69;50.20
19208;BME280;9737;59.466;18.036;2023-04-01T00:48:02;93537.19;;;-7.66;50.16
19208;BME280;9737;59.466;18.036;2023-04-01T00:50:33;93512.28;;;-7.74;50.89
19208;BME280;9737;59.466;18.036;2023-04-01T00:53:03;93495.06;;;-7.82;50.46
19208;BME280;9737;59.466;18.036;2023-04-01T00:55:34;93449.41;;;-7.96;50.55
19208;BME280;9737;59.466;18.036;2023-04-01T00:58:05;93413.06;;;-8.01;50.35
19208;BME280;9737;59.466;18.036;2023-04-01T01:00:35;93396.34;;;-8.05;50.49
19208;BME280;9737;59.466;18.036;2023-04-01T01:03:05;93397.50;;;-8.07;50.22
19208;BME280;9737;59.466;18.036;2023-04-01T01:05:43;93403.09;;;-8.04;50.57
19208;BME280;9737;59.466;18.036;2023-04-01T01:08:19;93410.84;;;-8.04;50.43
19208;BME280;9737;59.466;18.036;2023-04-01T01:10:51;93412.44;;;-8.03;50.31
19208;BME280;9737;59.466;18.036;2023-04-01T01:13:26;93415.00;;;-8.03;50.57
19208;BME280;9737;59.466;18.036;2023-04-01T01:16:00;93409.50;;;-8.00;49.99
19208;BME280;9737;59.466;18.036;2023-04-01T01:18:36;93411.47;;;-8.02;50.54
19208;BME280;9737;59.466;18.036;2023-04-01T01:21:21;93407.28;;;-8.03;50.55
19208;BME280;9737;59.466;18.036;2023-04-01T01:24:10;93405.69;;;-8.04;50.67
19208;BME280;9737;59.466;18.036;2023-04-01T01:26:48;93395.72;;;-8.07;50.58
19208;BME280;9737;59.466;18.036;2023-04-01T01:32:41;93435.91;;;-7.98;50.58
19208;BME280;9737;59.466;18.036;2023-04-01T01:35:18;93443.28;;;-7.95;50.72
19208;BME280;9737;59.466;18.036;2023-04-01T01:37:51;93493.16;;;-7.79;51.09
19208;BME280;9737;59.466;18.036;2023-04-01T01:40:21;93526.25;;;-7.68;50.60
19208;BME280;9737;59.466;18.036;2023-04-01T01:42:52;93514.69;;;-7.72;50.80
19208;BME280;9737;59.466;18.036;2023-04-01T01:45:25;93492.19;;;-7.78;50.21
19208;BME280;9737;59.466;18.036;2023-04-01T01:47:54;93480.56;;;-7.83;51.10
19208;BME280;9737;59.466;18.036;2023-04-01T01:50:26;93467.56;;;-7.89;50.88
19208;BME280;9737;59.466;18.036;2023-04-01T01:53:02;93411.19;;;-8.07;50.56
19208;BME280;9737;59.466;18.036;2023-04-01T01:55:33;93423.19;;;-7.99;50.43
19208;BME280;9737;59.466;18.036;2023-04-01T01:58:05;93415.81;;;-8.02;50.87
19208;BME280;9737;59.466;18.036;2023-04-01T02:00:34;93397.50;;;-8.07;51.00
19208;BME280;9737;59.466;18.036;2023-04-01T02:03:03;93396.34;;;-8.05;50.72
19208;BME280;9737;59.466;18.036;2023-04-01T02:05:33;93383.16;;;-8.10;50.63
19208;BME280;9737;59.466;18.036;2023-04-01T02:08:06;93373.19;;;-8.13;50.53
19208;BME280;9737;59.466;18.036;2023-04-01T02:10:38;93380.56;;;-8.10;50.97
19208;BME280;9737;59.466;18.036;2023-04-01T02:13:11;93398.28;;;-8.07;50.86
19208;BME280;9737;59.466;18.036;2023-04-01T02:15:45;93394.31;;;-8.18;50.92
19208;BME280;9737;59.466;18.036;2023-04-01T02:18:15;93472.22;;;-7.85;51.06
19208;BME280;9737;59.466;18.036;2023-04-01T02:20:48;93458.06;;;-7.89;50.92
19208;BME280;9737;59.466;18.036;2023-04-01T02:23:17;93449.72;;;-7.91;51.08
19208;BME280;9737;59.466;18.036;2023-04-01T02:25:45;93438.94;;;-7.94;50.54
19208;BME280;9737;59.466;18.036;2023-04-01T02:28:13;93433.78;;;-7.94;50.69
19208;BME280;9737;59.466;18.036;2023-04-01T02:30:48;93423.66;;;-7.96;51.15
19208;BME280;9737;59.466;18.036;2023-04-01T02:33:18;93402.56;;;-8.22;51.05
19208;BME280;9737;59.466;18.036;2023-04-01T02:35:48;93458.06;;;-7.89;50.53
19208;BME280;9737;59.466;18.036;2023-04-01T02:38:17;93427.25;;;-8.05;50.98
19208;BME280;9737;59.466;18.036;2023-04-01T02:40:47;93442.31;;;-7.94;51.72
19208;BME280;9737;59.466;18.036;2023-04-01T02:43:15;93448.09;;;-7.92;50.66
19208;BME280;9737;59.466;18.036;2023-04-01T02:45:44;93409.25;;;-8.13;51.17
19208;BME280;9737;59.466;18.036;2023-04-01T02:50:40;93431.38;;;-7.96;51.34
19208;BME280;9737;59.466;18.036;2023-04-01T02:53:10;93420.63;;;-7.99;50.84
19208;BME280;9737;59.466;18.036;2023-04-01T02:55:38;93421.06;;;-7.96;51.60
19208;BME280;9737;59.466;18.036;2023-04-01T02:58:06;93475.13;;;-7.88;50.85
19208;BME280;9737;59.466;18.036;2023-04-01T03:00:34;93484.75;;;-7.82;51.38
19208;BME280;9737;59.466;18.036;2023-04-01T03:03:03;93489.91;;;-7.82;51.17
19208;BME280;9737;59.466;18.036;2023-04-01T03:05:31;93543.00;;;-7.64;51.39
19208;BME280;9737;59.466;18.036;2023-04-01T03:08:00;93522.06;;;-7.69;51.63
19208;BME280;9737;59.466;18.036;2023-04-01T03:10:29;93487.50;;;-7.83;51.58
19208;BME280;9737;59.466;18.036;2023-04-01T03:12:57;93502.94;;;-7.75;51.62
19208;BME280;9737;59.466;18.036;2023-04-01T03:15:25;93527.88;;;-7.67;51.14
19208;BME280;9737;59.466;18.036;2023-04-01T03:17:53;93521.31;;;-7.78;51.22
19208;BME280;9737;59.466;18.036;2023-04-01T03:20:21;93553.59;;;-7.59;51.86
19208;BME280;9737;59.466;18.036;2023-04-01T03:22:49;93523.41;;;-7.73;51.47
19208;BME280;9737;59.466;18.036;2023-04-01T03:25:18;93489.31;;;-7.92;52.07
19208;BME280;9737;59.466;18.036;2023-04-01T03:27:47;93505.06;;;-7.78;51.77
19208;BME280;9737;59.466;18.036;2023-04-01T03:30:15;93432.94;;;-8.18;51.43
19208;BME280;9737;59.466;18.036;2023-04-01T03:32:44;93506.31;;;-7.74;51.94
19208;BME280;9737;59.466;18.036;2023-04-01T03:35:12;93465.78;;;-7.89;51.03
19208;BME280;9737;59.466;18.036;2023-04-01T03:37:41;93319.66;;;-8.71;51.48
19208;BME280;9737;59.466;18.036;2023-04-01T03:40:10;93382.19;;;-8.32;51.55
19208;BME280;9737;59.466;18.036;2023-04-01T03:42:38;93393.94;;;-8.06;51.61
19208;BME280;9737;59.466;18.036;2023-04-01T03:45:08;93368.72;;;-8.19;52.16
19208;BME280;9737;59.466;18.036;2023-04-01T03:47:36;93370.63;;;-8.13;51.85
19208;BME280;9737;59.466;18.036;2023-04-01T03:50:08;93335.31;;;-8.27;51.90
19208;BME280;9737;59.466;18.036;2023-04-01T03:52:37;93344.56;;;-8.18;51.89
19208;BME280;9737;59.466;18.036;2023-04-01T03:55:05;93334.16;;;-8.25;51.65
19208;BME280;9737;59.466;18.036;2023-04-01T03:57:34;93232.06;;;-8.78;51.76
19208;BME280;9737;59.466;18.036;2023-04-01T04:00:02;93277.81;;;-8.43;52.10
19208;BME280;9737;59.466;18.036;2023-04-01T04:02:32;93299.19;;;-8.34;51.37
19208;BME280;9737;59.466;18.036;2023-04-01T04:05:00;93261.19;;;-8.55;51.90
19208;BME280;9737;59.466;18.036;2023-04-01T04:07:28;93312.75;;;-8.25;51.56
19208;BME280;9737;59.466;18.036;2023-04-01T04:09:56;93178.41;;;-9.12;51.49
19208;BME280;9737;59.466;18.036;2023-04-01T04:12:25;93283.31;;;-8.46;52.09
19208;BME280;9737;59.466;18.036;2023-04-01T04:14:53;93318.97;;;-8.34;51.63
19208;BME280;9737;59.466;18.036;2023-04-01T04:17:21;93307.16;;;-8.29;51.66
19208;BME280;9737;59.466;18.036;2023-04-01T04:19:54;93200.81;;;-8.98;51.51
19208;BME280;9737;59.466;18.036;2023-04-01T04:22:22;93240.53;;;-8.47;51.55
19208;BME280;9737;59.466;18.036;2023-04-01T04:24:50;93112.41;;;-9.20;52.15
19208;BME280;9737;59.466;18.036;2023-04-01T04:27:19;93115.19;;;-9.07;51.89
19208;BME280;9737;59.466;18.036;2023-04-01T04:29:47;93129.91;;;-8.92;51.67
19208;BME280;9737;59.466;18.036;2023-04-01T04:32:15;93060.88;;;-9.49;51.76
19208;BME280;9737;59.466;18.036;2023-04-01T04:34:43;93188.03;;;-8.60;51.79
19208;BME280;9737;59.466;18.036;2023-04-01T04:37:13;93155.03;;;-8.80;52.34
19208;BME280;9737;59.466;18.036;2023-04-01T04:39:41;93158.69;;;-8.74;51.80
19208;BME280;9737;59.466;18.036;2023-04-01T04:42:09;93177.28;;;-8.64;51.83
19208;BME280;9737;59.466;18.036;2023-04-01T04:44:38;93187.06;;;-8.59;51.74
19208;BME280;9737;59.466;18.036;2023-04-01T04:47:08;93128.97;;;-8.99;51.78
19208;BME280;9737;59.466;18.036;2023-04-01T04:49:36;93226.22;;;-8.49;52.06
19208;BME280;9737;59.466;18.036;2023-04-01T04:52:04;93169.16;;;-8.98;52.19
19208;BME280;9737;59.466;18.036;2023-04-01T04:54:34;93161.53;;;-9.15;52.02
19208;BME280;9737;59.466;18.036;2023-04-01T04:57:02;93247.41;;;-8.62;52.42
19208;BME280;9737;59.466;18.036;2023-04-01T04:59:30;93374.78;;;-8.12;52.27
19208;BME280;9737;59.466;18.036;2023-04-01T05:01:59;93416.28;;;-7.99;52.17
19208;BME280;9737;59.466;18.036;2023-04-01T05:04:27;93504.38;;;-7.72;52.73
19208;BME280;9737;59.466;18.036;2023-04-01T05:06:55;93558.13;;;-7.61;52.77
19208;BME280;9737;59.466;18.036;2023-04-01T05:09:23;93641.16;;;-7.35;52.32
19208;BME280;9737;59.466;18.036;2023-04-01T05:11:53;93692.22;;;-7.22;52.41
19208;BME280;9737;59.466;18.036;2023-04-01T05:14:21;93722.94;;;-7.12;52.69
19208;BME280;9737;59.466;18.036;2023-04-01T05:16:49;93748.38;;;-7.01;53.11
19208;BME280;9737;59.466;18.036;2023-04-01T05:19:17;93806.41;;;-6.89;53.00
19208;BME280;9737;59.466;18.036;2023-04-01T05:21:45;93863.94;;;-6.72;53.26
19208;BME280;9737;59.466;18.036;2023-04-01T05:24:13;93920.22;;;-6.60;52.83
19208;BME280;9737;59.466;18.036;2023-04-01T05:26:41;93979.06;;;-6.39;53.21
19208;BME280;9737;59.466;18.036;2023-04-01T05:29:10;94027.19;;;-6.38;52.62
19208;BME280;9737;59.466;18.036;2023-04-01T05:31:38;94067.25;;;-6.34;53.51
19208;BME280;9737;59.466;18.036;2023-04-01T05:34:06;94130.69;;;-6.15;53.71
19208;BME280;9737;59.466;18.036;2023-04-01T05:36:34;94250.50;;;-5.67;53.50
19208;BME280;9737;59.466;18.036;2023-04-01T05:39:03;94327.91;;;-5.49;53.58
19208;BME280;9737;59.466;18.036;2023-04-01T05:44:52;94531.63;;;-4.93;53.62
19208;BME280;9737;59.466;18.036;2023-04-01T05:47:24;94642.72;;;-4.65;53.96
19208;BME280;9737;59.466;18.036;2023-04-01T05:49:53;94868.75;;;-3.95;54.18
19208;BME280;9737;59.466;18.036;2023-04-01T05:52:22;95027.50;;;-3.58;54.47
19208;BME280;9737;59.466;18.036;2023-04-01T05:54:53;95261.66;;;-3.02;54.47
19208;BME280;9737;59.466;18.036;2023-04-01T05:57:21;95575.25;;;-2.06;54.38
19208;BME280;9737;59.466;18.036;2023-04-01T05:59:50;95845.56;;;-1.30;55.08
19208;BME280;9737;59.466;18.036;2023-04-01T06:02:19;96129.22;;;-0.53;55.08
19208;BME280;9737;59.466;18.036;2023-04-01T06:04:47;96382.63;;;0.09;55.19
19208;BME280;9737;59.466;18.036;2023-04-01T06:07:17;96549.09;;;0.53;55.66
19208;BME280;9737;59.466;18.036;2023-04-01T06:09:45;96766.38;;;1.16;55.88
19208;BME280;9737;59.466;18.036;2023-04-01T06:12:29;96867.81;;;1.42;56.12
19208;BME280;9737;59.466;18.036;2023-04-01T06:15:09;96978.72;;;1.70;55.78
19208;BME280;9737;59.466;18.036;2023-04-01T06:18:01;97244.47;;;2.44;56.37
19208;BME280;9737;59.466;18.036;2023-04-01T06:20:37;97445.41;;;2.95;56.49
19208;BME280;9737;59.466;18.036;2023-04-01T06:23:28;97530.72;;;3.20;56.73
19208;BME280;9737;59.466;18.036;2023-04-01T06:26:14;97658.72;;;3.37;57.05
19208;BME280;9737;59.466;18.036;2023-04-01T06:28:55;97686.84;;;3.56;56.95
19208;BME280;9737;59.466;18.036;2023-04-01T06:31:35;97725.31;;;3.67;56.90
19208;BME280;9737;59.466;18.036;2023-04-01T06:37:22;97615.88;;;3.37;57.15
19208;BME280;9737;59.466;18.036;2023-04-01T06:40:12;97514.38;;;2.97;57.33
19208;BME280;9737;59.466;18.036;2023-04-01T06:42:55;97682.97;;;3.51;57.41
19208;BME280;9737;59.466;18.036;2023-04-01T06:45:36;97670.81;;;3.50;57.35
19208;BME280;9737;59.466;18.036;2023-04-01T06:48:27;97645.59;;;3.37;57.25
19208;BME280;9737;59.466;18.036;2023-04-01T06:51:04;97784.28;;;3.74;57.53
19208;BME280;9737;59.466;18.036;2023-04-01T06:53:38;97838.84;;;3.91;57.68
19208;BME280;9737;59.466;18.036;2023-04-01T06:56:12;97856.28;;;3.92;57.45
19208;BME280;9737;59.466;18.036;2023-04-01T06:58:45;97775.09;;;3.59;57.58
19208;BME280;9737;59.466;18.036;2023-04-01T07:01:18;97871.25;;;3.92;57.69
19208;BME280;9737;59.466;18.036;2023-04-01T07:03:50;98043.84;;;4.44;57.80
19208;BME280;9737;59.466;18.036;2023-04-01T07:06:27;98099.44;;;4.60;58.22
19208;BME280;9737;59.466;18.036;2023-04-01T07:08:59;98173.09;;;4.72;57.91
19208;BME280;9737;59.466;18.036;2023-04-01T07:11:34;98165.31;;;4.70;58.40
19208;BME280;9737;59.466;18.036;2023-04-01T07:14:08;98175.91;;;4.80;58.53
19208;BME280;9737;59.466;18.036;2023-04-01T07:16:42;98211.81;;;4.81;58.29
19208;BME280;9737;59.466;18.036;2023-04-01T07:19:15;98385.47;;;5.35;58.61
19208;BME280;9737;59.466;18.036;2023-04-01T07:21:49;98436.31;;;5.47;58.50
19208;BME280;9737;59.466;18.036;2023-04-01T07:24:22;98672.00;;;6.10;58.88
19208;BME280;9737;59.466;18.036;2023-04-01T07:26:54;98901.53;;;6.55;58.87
19208;BME280;9737;59.466;18.036;2023-04-01T07:29:22;99035.94;;;7.02;59.17
19208;BME280;9737;59.466;18.036;2023-04-01T07:32:13;99259.31;;;7.53;59.07
19208;BME280;9737;59.466;18.036;2023-04-01T07:34:51;99295.75;;;7.60;58.95
19208;BME280;9737;59.466;18.036;2023-04-01T07:37:30;99238.25;;;7.51;59.12
19208;BME280;9737;59.466;18.036;2023-04-01T07:40:09;99195.09;;;7.39;59.33
19208;BME280;9737;59.466;18.036;2023-04-01T07:42:52;99142.97;;;7.19;59.47
19208;BME280;9737;59.466;18.036;2023-04-01T07:45:29;99200.91;;;7.33;59.20
19208;BME280;9737;59.466;18.036;2023-04-01T07:48:12;99269.28;;;7.49;59.27
19208;BME280;9737;59.466;18.036;2023-04-01T07:50:51;99464.78;;;7.98;59.24
19208;BME280;9737;59.466;18.036;2023-04-01T07:53:30;99767.72;;;8.79;59.27
19208;BME280;9737;59.466;18.036;2023-04-01T07:56:06;99768.06;;;8.85;59.25
19208;BME280;9737;59.466;18.036;2023-04-01T07:58:48;99870.47;;;9.10;60.08
19208;BME280;9737;59.466;18.036;2023-04-01T08:01:24;99664.88;;;8.49;59.54
19208;BME280;9737;59.466;18.036;2023-04-01T08:04:17;99733.00;;;8.71;59.76
19208;BME280;9737;59.466;18.036;2023-04-01T08:06:54;99650.19;;;8.45;59.62
19208;BME280;9737;59.466;18.036;2023-04-01T08:09:30;99644.41;;;8.51;59.84
19208;BME280;9737;59.466;18.036;2023-04-01T08:12:13;99844.56;;;9.03;59.81
19208;BME280;9737;59.466;18.036;2023-04-01T08:14:53;99916.44;;;9.11;59.53
19208;BME280;9737;59.466;18.036;2023-04-01T08:17:28;99859.00;;;8.98;59.95
19208;BME280;9737;59.466;18.036;2023-04-01T08:20:09;100242.25;;;10.03;60.26
19208;BME280;9737;59.466;18.036;2023-04-01T08:22:41;100385.56;;;10.30;60.20
19208;BME280;9737;59.466;18.036;2023-04-01T08:25:17;100698.81;;;11.12;60.36
19208;BME280;9737;59.466;18.036;2023-04-01T08:27:51;100935.22;;;11.70;60.13
19208;BME280;9737;59.466;18.036;2023-04-01T08:30:23;101017.97;;;11.94;60.30
19208;BME280;9737;59.466;18.036;2023-04-01T08:32:54;100955.06;;;11.79;60.52
19208;BME280;9737;59.466;18.036;2023-04-01T08:35:28;101269.97;;;12.52;60.40
19208;BME280;9737;59.466;18.036;2023-04-01T08:38:06;101379.09;;;12.69;60.53
19208;BME280;9737;59.466;18.036;2023-04-01T08:40:48;101460.56;;;13.02;60.42
19208;BME280;9737;59.466;18.036;2023-04-01T08:43:30;101006.78;;;11.89;60.59
19208;BME280;9737;59.466;18.036;2023-04-01T08:46:17;101121.19;;;12.05;60.55
19208;BME280;9737;59.466;18.036;2023-04-01T08:48:55;101359.13;;;12.62;60.75
19208;BME280;9737;59.466;18.036;2023-04-01T08:51:43;101440.44;;;12.84;60.73
19208;BME280;9737;59.466;18.036;2023-04-01T08:54:37;101610.69;;;13.34;60.41
19208;BME280;9737;59.466;18.036;2023-04-01T08:57:21;101670.94;;;13.52;60.88
19208;BME280;9737;59.466;18.036;2023-04-01T08:59:58;101670.06;;;13.52;60.85
19208;BME280;9737;59.466;18.036;2023-04-01T09:06:12;102058.97;;;14.46;60.82
19208;BME280;9737;59.466;18.036;2023-04-01T09:08:57;101978.75;;;14.16;60.88
19208;BME280;9737;59.466;18.036;2023-04-01T09:11:39;101966.81;;;14.21;60.96
19208;BME280;9737;59.466;18.036;2023-04-01T09:14:26;101954.41;;;14.20;60.60
19208;BME280;9737;59.466;18.036;2023-04-01T09:17:24;101891.38;;;14.02;60.67
19208;BME280;9737;59.466;18.036;2023-04-01T09:20:17;101752.72;;;13.55;60.44
19208;BME280;9737;59.466;18.036;2023-04-01T09:23:01;102025.75;;;14.34;60.38
19208;BME280;9737;59.466;18.036;2023-04-01T09:25:53;101949.81;;;14.08;60.36
19208;BME280;9737;59.466;18.036;2023-04-01T09:28:28;102111.91;;;14.55;60.46
19208;BME280;9737;59.466;18.036;2023-04-01T09:31:20;102576.84;;;15.63;60.55
19208;BME280;9737;59.466;18.036;2023-04-01T09:37:04;103372.28;;;17.57;60.72
19208;BME280;9737;59.466;18.036;2023-04-01T09:39:47;103355.34;;;17.55;60.77
19208;BME280;9737;59.466;18.036;2023-04-01T09:42:40;103359.97;;;17.53;60.76
19208;BME280;9737;59.466;18.036;2023-04-01T09:45:20;103355.53;;;17.52;60.89
19208;BME280;9737;59.466;18.036;2023-04-01T09:48:03;103274.03;;;17.34;60.68
19208;BME280;9737;59.466;18.036;2023-04-01T09:50:46;103545.84;;;17.99;60.65
19208;BME280;9737;59.466;18.036;2023-04-01T09:53:33;103718.84;;;18.37;60.63
19208;BME280;9737;59.466;18.036;2023-04-01T09:56:23;103631.97;;;18.16;60.59
19208;BME280;9737;59.466;18.036;2023-04-01T09:59:20;103836.06;;;18.63;60.53
19208;BME280;9737;59.466;18.036;2023-04-01T10:02:14;103726.75;;;18.40;60.37
19208;BME280;9737;59.466;18.036;2023-04-01T10:08:25;103937.03;;;18.91;60.31
19208;BME280;9737;59.466;18.036;2023-04-01T10:14:24;104446.75;;;20.05;60.28
19208;BME280;9737;59.466;18.036;2023-04-01T10:17:24;104079.19;;;19.23;60.09
19208;BME280;9737;59.466;18.036;2023-04-01T10:20:21;104581.06;;;20.39;60.06
19208;BME280;9737;59.466;18.036;2023-04-01T10:29:22;104008.06;;;19.07;59.82
19208;BME280;9737;59.466;18.036;2023-04-01T10:32:12;103861.53;;;18.73;59.62
19208;BME280;9737;59.466;18.036;2023-04-01T10:35:23;104116.63;;;19.29;59.44
19208;BME280;9737;59.466;18.036;2023-04-01T10:38:27;104172.44;;;19.46;59.51
19208;BME280;9737;59.466;18.036;2023-04-01T10:41:26;103937.81;;;18.93;59.30
19208;BME280;9737;59.466;18.036;2023-04-01T10:44:35;104657.53;;;20.61;59.24
19208;BME280;9737;59.466;18.036;2023-04-01T10:47:36;104489.34;;;20.17;59.07
19208;BME280;9737;59.466;18.036;2023-04-01T10:50:24;104672.72;;;20.64;59.15
19208;BME280;9737;59.466;18.036;2023-04-01T10:53:28;104276.28;;;19.75;59.10
19208;BME280;9737;59.466;18.036;2023-04-01T10:56:29;104814.38;;;20.99;58.98
19208;BME280;9737;59.466;18.036;2023-04-01T10:59:28;104239.88;;;19.65;58.85
19208;BME280;9737;59.466;18.036;2023-04-01T11:05:41;103797.44;;;18.63;58.34
19208;BME280;9737;59.466;18.036;2023-04-01T11:08:51;103856.78;;;18.78;58.26
19208;BME280;9737;59.466;18.036;2023-04-01T11:18:31;104525.25;;;20.38;58.03
19208;BME280;9737;59.466;18.036;2023-04-01T11:21:36;104101.72;;;19.39;57.85
19208;BME280;9737;59.466;18.036;2023-04-01T11:24:31;104381.81;;;20.06;57.86
19208;BME280;9737;59.466;18.036;2023-04-01T11:27:16;104330.28;;;19.92;57.62
19208;BME280;9737;59.466;18.036;2023-04-01T11:29:59;104378.22;;;20.06;57.56
19208;BME280;9737;59.466;18.036;2023-04-01T11:32:45;104330.19;;;19.94;57.38
19208;BME280;9737;59.466;18.036;2023-04-01T11:35:44;104405.78;;;20.13;57.22
19208;BME280;9737;59.466;18.036;2023-04-01T11:38:24;103945.25;;;19.05;57.19
19208;BME280;9737;59.466;18.036;2023-04-01T11:41:02;103824.75;;;18.72;56.97
19208;BME280;9737;59.466;18.036;2023-04-01T11:43:40;104067.78;;;19.34;56.69
19208;BME280;9737;59.466;18.036;2023-04-01T11:46:17;104051.53;;;19.35;56.88
19208;BME280;9737;59.466;18.036;2023-04-01T11:48:55;103660.31;;;18.39;56.70
19208;BME280;9737;59.466;18.036;2023-04-01T11:51:47;103904.16;;;19.00;56.48
19208;BME280;9737;59.466;18.036;2023-04-01T11:54:32;103998.38;;;19.20;56.48
19208;BME280;9737;59.466;18.036;2023-04-01T11:57:31;103951.19;;;19.11;56.47
19208;BME280;9737;59.466;18.036;2023-04-01T12:00:18;104061.34;;;19.36;56.19
19208;BME280;9737;59.466;18.036;2023-04-01T12:03:02;103952.06;;;19.12;55.93
19208;BME280;9737;59.466;18.036;2023-04-01T12:05:43;104222.00;;;19.79;55.90
19208;BME280;9737;59.466;18.036;2023-04-01T12:08:23;104008.75;;;19.28;55.75
19208;BME280;9737;59.466;18.036;2023-04-01T12:10:58;104048.72;;;19.37;55.59
19208;BME280;9737;59.466;18.036;2023-04-01T12:13:38;104109.97;;;19.54;55.62
19208;BME280;9737;59.466;18.036;2023-04-01T12:16:28;103888.94;;;18.99;55.53
19208;BME280;9737;59.466;18.036;2023-04-01T12:19:07;103813.31;;;18.84;55.43
19208;BME280;9737;59.466;18.036;2023-04-01T12:21:37;103875.44;;;18.99;55.11
19208;BME280;9737;59.466;18.036;2023-04-01T12:24:36;103951.72;;;19.18;55.13
19208;BME280;9737;59.466;18.036;2023-04-01T12:27:19;103949.03;;;19.18;55.13
19208;BME280;9737;59.466;18.036;2023-04-01T12:29:54;104205.88;;;19.78;54.88
19208;BME280;9737;59.466;18.036;2023-04-01T12:32:31;104042.41;;;19.38;54.88
19208;BME280;9737;59.466;18.036;2023-04-01T12:35:17;103829.31;;;18.87;54.77
19208;BME280;9737;59.466;18.036;2023-04-01T12:37:52;103822.88;;;18.90;54.63
19208;BME280;9737;59.466;18.036;2023-04-01T12:40:45;103698.19;;;18.53;54.66
19208;BME280;9737;59.466;18.036;2023-04-01T12:43:30;103976.47;;;19.26;54.52
19208;BME280;9737;59.466;18.036;2023-04-01T12:46:08;103972.97;;;19.24;54.44
19208;BME280;9737;59.466;18.036;2023-04-01T12:49:10;103760.50;;;18.80;54.22
19208;BME280;9737;59.466;18.036;2023-04-01T12:52:03;103523.00;;;18.22;54.01
19208;BME280;9737;59.466;18.036;2023-04-01T12:55:15;103417.88;;;17.92;53.92
19208;BME280;9737;59.466;18.036;2023-04-01T13:00:48;103590.44;;;18.36;53.67
19208;BME280;9737;59.466;18.036;2023-04-01T13:03:43;103462.69;;;18.09;53.60
19208;BME280;9737;59.466;18.036;2023-04-01T13:06:38;103411.38;;;17.96;53.38
19208;BME280;9737;59.466;18.036;2023-04-01T13:09:19;103538.44;;;18.18;53.31
19208;BME280;9737;59.466;18.036;2023-04-01T13:12:04;103012.19;;;17.06;53.00
19208;BME280;9737;59.466;18.036;2023-04-01T13:15:03;102989.22;;;17.00;52.96
19208;BME280;9737;59.466;18.036;2023-04-01T13:17:40;103115.78;;;17.27;52.86
19208;BME280;9737;59.466;18.036;2023-04-01T13:20:18;103063.69;;;17.14;52.84
19208;BME280;9737;59.466;18.036;2023-04-01T13:23:01;102892.97;;;16.77;52.87
19208;BME280;9737;59.466;18.036;2023-04-01T13:25:36;102942.34;;;16.90;52.53
19208;BME280;9737;59.466;18.036;2023-04-01T13:28:13;103080.13;;;17.23;52.57
19208;BME280;9737;59.466;18.036;2023-04-01T13:30:48;103447.22;;;18.12;52.50
19208;BME280;9737;59.466;18.036;2023-04-01T13:33:26;103514.47;;;18.30;52.45
19208;BME280;9737;59.466;18.036;2023-04-01T13:36:08;103675.66;;;18.70;52.47
19208;BME280;9737;59.466;18.036;2023-04-01T13:38:58;103665.94;;;18.68;52.33
19208;BME280;9737;59.466;18.036;2023-04-01T13:44:31;103578.94;;;18.48;52.09
19208;BME280;9737;59.466;18.036;2023-04-01T13:47:20;103418.06;;;18.05;52.11
19208;BME280;9737;59.466;18.036;2023-04-01T13:50:07;103619.81;;;18.56;51.89
19208;BME280;9737;59.466;18.036;2023-04-01T13:56:07;103241.66;;;17.68;51.69
19208;BME280;9737;59.466;18.036;2023-04-01T13:58:58;103523.84;;;18.38;51.70
19208;BME280;9737;59.466;18.036;2023-04-01T14:01:37;103937.72;;;19.27;51.47
19208;BME280;9737;59.466;18.036;2023-04-01T14:04:34;103674.53;;;18.74;51.46
19208;BME280;9737;59.466;18.036;2023-04-01T14:07:15;103681.06;;;18.70;51.41
19208;BME280;9737;59.466;18.036;2023-04-01T14:10:07;103617.03;;;18.42;51.30
19208;BME280;9737;59.466;18.036;2023-04-01T14:12:43;103381.22;;;18.05;51.36
19208;BME280;9737;59.466;18.036;2023-04-01T14:15:22;102942.66;;;16.99;51.08
19208;BME280;9737;59.466;18.036;2023-04-01T14:18:13;102995.97;;;17.07;50.74
19208;BME280;9737;59.466;18.036;2023-04-01T14:20:51;102854.34;;;16.63;50.88
19208;BME280;9737;59.466;18.036;2023-04-01T14:23:42;102909.63;;;16.83;50.75
19208;BME280;9737;59.466;18.036;2023-04-01T14:26:26;103278.31;;;17.84;50.73
19208;BME280;9737;59.466;18.036;2023-04-01T14:29:10;103773.53;;;19.04;50.74
19208;BME280;9737;59.466;18.036;2023-04-01T14:31:48;102945.13;;;16.88;50.57
19208;BME280;9737;59.466;18.036;2023-04-01T14:34:30;102848.59;;;16.55;50.39
19208;BME280;9737;59.466;18.036;2023-04-01T14:37:10;103017.41;;;17.23;50.16
19208;BME280;9737;59.466;18.036;2023-04-01T14:39:59;102953.91;;;17.06;50.26
19208;BME280;9737;59.466;18.036;2023-04-01T14:42:45;102851.81;;;16.76;50.20